BBC Switzerland — DGFL2 — position and weather

sailwx.info

Track history (hours):
 
Tides and Currents Weather Stations Pressure Air Temp Water Temp Dewpoint Dewpoint Depression Visibility Wind Speed Wind Dir Waves Ship Positions

BBC Switzerland

Last reported at 2017-Sep-16 01:02 UTC. Time now 2017-Sep-22 04:46 UTC.
Position N 01°13' E 103°55'.

Length 119 m; draft 6.4 m.

Type: Cargo ship. MMSI: 218629000.

Date/timePositionNaut miles runAvg speedWind from/ knotsBaromVisibWave heightAir tempDewpointWater temp
2017-Sep-16 01:02N 01°13' E 103°55'1 9.7
2017-Sep-16 00:53N 01°13' E 103°53'1 3.8
2017-Sep-16 00:30N 01°14' E 103°52'1 0.9
2017-Sep-15 23:34N 01°15' E 103°52'0 0.1
2017-Sep-15 23:04N 01°15' E 103°52'0 0.2
2017-Sep-15 22:37N 01°15' E 103°52'0 0.0
2017-Sep-15 20:52N 01°15' E 103°52'0 0.0
2017-Sep-15 19:22N 01°15' E 103°52'0 0.2
2017-Sep-15 18:58N 01°15' E 103°53'0 0.0
2017-Sep-15 18:22N 01°15' E 103°53'0 0.2
2017-Sep-15 17:58N 01°15' E 103°52'0 0.1
2017-Sep-15 17:07N 01°15' E 103°53'0 0.1
2017-Sep-15 16:58N 01°15' E 103°53'0 0.0
2017-Sep-15 16:22N 01°15' E 103°53'0 0.0
2017-Sep-15 15:49N 01°15' E 103°53'0 0.1
2017-Sep-15 15:22N 01°15' E 103°53'0 0.0
2017-Sep-15 14:58N 01°15' E 103°53'0 0.0
2017-Sep-15 14:22N 01°15' E 103°53'0 0.0
2017-Sep-15 13:40N 01°15' E 103°53'0 0.1
2017-Sep-15 13:22N 01°15' E 103°53'0 0.4
2017-Sep-15 13:00N 01°15' E 103°53'3 5.5
2017-Sep-15 12:30N 01°14' E 103°55'3 5.0
2017-Sep-15 12:00N 01°15' E 103°58'9 6.5
2017-Sep-15 10:37N 01°19' E 104°05'1 9.3
2017-Sep-15 10:30N 01°20' E 104°05'11 0.2
2017-Sep-13 08:47N 01°13' E 103°56'1013.5
2017-Sep-13 08:05N 01°09' E 103°48'113.8
2017-Sep-13 07:59N 01°09' E 103°46'613.2
2017-Sep-13 07:30N 01°04' E 103°42'  
Track history (hours):
 
Tides and Currents Weather Stations Pressure Air Temp Water Temp Dewpoint Dewpoint Depression Visibility Wind Speed Wind Dir Waves Ship Positions

BBC Switzerland

Last reported at 2017-Sep-16 01:02 UTC. Time now 2017-Sep-22 04:46 UTC.
Position N 01°13' E 103°55'.

Length 119 m; draft 6.4 m.

Type: Cargo ship. MMSI: 218629000.

Date/timePositionNaut miles runAvg speedWind from/ knotsBaromVisibWave heightAir tempDewpointWater temp
2017-Sep-16 01:02N 01°13' E 103°55'1 9.7
2017-Sep-16 00:53N 01°13' E 103°53'1 3.8
2017-Sep-16 00:30N 01°14' E 103°52'1 0.9
2017-Sep-15 23:34N 01°15' E 103°52'0 0.1
2017-Sep-15 23:04N 01°15' E 103°52'0 0.2
2017-Sep-15 22:37N 01°15' E 103°52'0 0.0
2017-Sep-15 20:52N 01°15' E 103°52'0 0.0
2017-Sep-15 19:22N 01°15' E 103°52'0 0.2
2017-Sep-15 18:58N 01°15' E 103°53'0 0.0
2017-Sep-15 18:22N 01°15' E 103°53'0 0.2
2017-Sep-15 17:58N 01°15' E 103°52'0 0.1
2017-Sep-15 17:07N 01°15' E 103°53'0 0.1
2017-Sep-15 16:58N 01°15' E 103°53'0 0.0
2017-Sep-15 16:22N 01°15' E 103°53'0 0.0
2017-Sep-15 15:49N 01°15' E 103°53'0 0.1
2017-Sep-15 15:22N 01°15' E 103°53'0 0.0
2017-Sep-15 14:58N 01°15' E 103°53'0 0.0
2017-Sep-15 14:22N 01°15' E 103°53'0 0.0
2017-Sep-15 13:40N 01°15' E 103°53'0 0.1
2017-Sep-15 13:22N 01°15' E 103°53'0 0.4
2017-Sep-15 13:00N 01°15' E 103°53'3 5.5
2017-Sep-15 12:30N 01°14' E 103°55'3 5.0
2017-Sep-15 12:00N 01°15' E 103°58'9 6.5
2017-Sep-15 10:37N 01°19' E 104°05'1 9.3
2017-Sep-15 10:30N 01°20' E 104°05'11 0.2
2017-Sep-13 08:47N 01°13' E 103°56'1013.5
2017-Sep-13 08:05N 01°09' E 103°48'113.8
2017-Sep-13 07:59N 01°09' E 103°46'613.2
2017-Sep-13 07:30N 01°04' E 103°42'  

Dump ship's entire track history